sensor_id;sensor_type;location;lat;lon;timestamp;P1;durP1;ratioP1;P2;durP2;ratioP2
82869;SDS011;72645;47.136;15.420;2023-12-29T00:00:17;9.60;;;3.70;;
82869;SDS011;72645;47.136;15.420;2023-12-29T00:02:49;7.20;;;3.90;;
82869;SDS011;72645;47.136;15.420;2023-12-29T00:05:20;7.40;;;4.20;;
82869;SDS011;72645;47.136;15.420;2023-12-29T00:07:51;5.90;;;3.50;;
82869;SDS011;72645;47.136;15.420;2023-12-29T00:10:22;12.60;;;4.10;;
82869;SDS011;72645;47.136;15.420;2023-12-29T00:12:53;11.50;;;4.60;;
82869;SDS011;72645;47.136;15.420;2023-12-29T00:15:24;12.60;;;4.20;;
82869;SDS011;72645;47.136;15.420;2023-12-29T00:17:55;9.30;;;4.90;;
82869;SDS011;72645;47.136;15.420;2023-12-29T00:20:27;9.60;;;4.90;;
82869;SDS011;72645;47.136;15.420;2023-12-29T00:23:08;8.50;;;4.50;;
82869;SDS011;72645;47.136;15.420;2023-12-29T00:25:39;12.90;;;4.40;;
82869;SDS011;72645;47.136;15.420;2023-12-29T00:28:10;10.50;;;4.00;;
82869;SDS011;72645;47.136;15.420;2023-12-29T00:30:41;10.60;;;3.70;;
82869;SDS011;72645;47.136;15.420;2023-12-29T00:33:28;7.90;;;3.50;;
82869;SDS011;72645;47.136;15.420;2023-12-29T00:36:00;4.80;;;2.40;;
82869;SDS011;72645;47.136;15.420;2023-12-29T00:38:31;5.40;;;3.00;;
82869;SDS011;72645;47.136;15.420;2023-12-29T00:41:02;5.50;;;2.60;;
82869;SDS011;72645;47.136;15.420;2023-12-29T00:43:33;5.60;;;3.60;;
82869;SDS011;72645;47.136;15.420;2023-12-29T00:46:05;4.20;;;2.40;;
82869;SDS011;72645;47.136;15.420;2023-12-29T00:48:36;5.50;;;2.90;;
82869;SDS011;72645;47.136;15.420;2023-12-29T00:51:09;6.10;;;3.20;;
82869;SDS011;72645;47.136;15.420;2023-12-29T00:53:39;6.20;;;2.90;;
82869;SDS011;72645;47.136;15.420;2023-12-29T00:56:12;8.00;;;4.10;;
82869;SDS011;72645;47.136;15.420;2023-12-29T00:58:43;9.90;;;2.80;;
82869;SDS011;72645;47.136;15.420;2023-12-29T01:01:13;6.10;;;2.90;;
82869;SDS011;72645;47.136;15.420;2023-12-29T01:03:44;2.90;;;1.80;;
82869;SDS011;72645;47.136;15.420;2023-12-29T01:06:15;6.50;;;2.30;;
82869;SDS011;72645;47.136;15.420;2023-12-29T01:08:46;4.50;;;2.30;;
82869;SDS011;72645;47.136;15.420;2023-12-29T01:11:17;5.90;;;3.20;;
82869;SDS011;72645;47.136;15.420;2023-12-29T01:13:48;5.60;;;2.70;;
82869;SDS011;72645;47.136;15.420;2023-12-29T01:16:19;5.00;;;2.70;;
82869;SDS011;72645;47.136;15.420;2023-12-29T01:18:50;5.80;;;3.50;;
82869;SDS011;72645;47.136;15.420;2023-12-29T01:21:22;5.40;;;2.80;;
82869;SDS011;72645;47.136;15.420;2023-12-29T01:26:28;5.30;;;2.40;;
82869;SDS011;72645;47.136;15.420;2023-12-29T01:28:59;4.70;;;2.60;;
82869;SDS011;72645;47.136;15.420;2023-12-29T01:31:30;5.70;;;2.70;;
82869;SDS011;72645;47.136;15.420;2023-12-29T01:34:02;5.70;;;3.40;;
82869;SDS011;72645;47.136;15.420;2023-12-29T01:36:33;5.60;;;2.50;;
82869;SDS011;72645;47.136;15.420;2023-12-29T01:39:04;4.40;;;2.70;;
82869;SDS011;72645;47.136;15.420;2023-12-29T01:41:35;5.10;;;2.50;;
82869;SDS011;72645;47.136;15.420;2023-12-29T01:46:51;5.40;;;2.70;;
82869;SDS011;72645;47.136;15.420;2023-12-29T01:49:24;5.10;;;2.60;;
82869;SDS011;72645;47.136;15.420;2023-12-29T01:51:57;4.00;;;2.30;;
82869;SDS011;72645;47.136;15.420;2023-12-29T01:54:31;4.60;;;2.20;;
82869;SDS011;72645;47.136;15.420;2023-12-29T01:57:06;3.90;;;2.10;;
82869;SDS011;72645;47.136;15.420;2023-12-29T01:59:38;4.60;;;2.90;;
82869;SDS011;72645;47.136;15.420;2023-12-29T02:02:10;4.20;;;2.50;;
82869;SDS011;72645;47.136;15.420;2023-12-29T02:04:43;4.50;;;2.50;;
82869;SDS011;72645;47.136;15.420;2023-12-29T02:07:15;6.20;;;2.30;;
82869;SDS011;72645;47.136;15.420;2023-12-29T02:09:47;4.80;;;2.30;;
82869;SDS011;72645;47.136;15.420;2023-12-29T02:12:20;5.90;;;2.50;;
82869;SDS011;72645;47.136;15.420;2023-12-29T02:14:51;3.70;;;2.50;;
82869;SDS011;72645;47.136;15.420;2023-12-29T02:17:22;4.70;;;2.40;;
82869;SDS011;72645;47.136;15.420;2023-12-29T02:19:57;8.50;;;2.80;;
82869;SDS011;72645;47.136;15.420;2023-12-29T02:22:28;5.00;;;2.00;;
82869;SDS011;72645;47.136;15.420;2023-12-29T02:24:59;3.60;;;2.00;;
82869;SDS011;72645;47.136;15.420;2023-12-29T02:27:34;4.40;;;2.40;;
82869;SDS011;72645;47.136;15.420;2023-12-29T02:30:14;5.60;;;2.50;;
82869;SDS011;72645;47.136;15.420;2023-12-29T02:32:50;3.00;;;1.70;;
82869;SDS011;72645;47.136;15.420;2023-12-29T02:35:28;2.90;;;1.90;;
82869;SDS011;72645;47.136;15.420;2023-12-29T02:38:03;5.80;;;2.20;;
82869;SDS011;72645;47.136;15.420;2023-12-29T02:40:34;3.80;;;2.00;;
82869;SDS011;72645;47.136;15.420;2023-12-29T02:43:07;3.00;;;1.70;;
82869;SDS011;72645;47.136;15.420;2023-12-29T02:45:39;3.70;;;2.30;;
82869;SDS011;72645;47.136;15.420;2023-12-29T02:48:10;2.70;;;2.30;;
82869;SDS011;72645;47.136;15.420;2023-12-29T02:50:41;4.60;;;2.30;;
82869;SDS011;72645;47.136;15.420;2023-12-29T02:53:12;3.10;;;1.70;;
82869;SDS011;72645;47.136;15.420;2023-12-29T02:55:43;5.80;;;2.30;;
82869;SDS011;72645;47.136;15.420;2023-12-29T02:58:14;4.20;;;2.20;;
82869;SDS011;72645;47.136;15.420;2023-12-29T03:00:46;4.40;;;2.20;;
82869;SDS011;72645;47.136;15.420;2023-12-29T03:03:17;3.90;;;2.00;;
82869;SDS011;72645;47.136;15.420;2023-12-29T03:05:48;3.50;;;1.60;;
82869;SDS011;72645;47.136;15.420;2023-12-29T03:08:19;3.70;;;2.00;;
82869;SDS011;72645;47.136;15.420;2023-12-29T03:10:50;5.10;;;2.10;;
82869;SDS011;72645;47.136;15.420;2023-12-29T03:13:21;5.00;;;2.50;;
82869;SDS011;72645;47.136;15.420;2023-12-29T03:15:52;5.00;;;2.20;;
82869;SDS011;72645;47.136;15.420;2023-12-29T03:18:23;5.10;;;2.70;;
82869;SDS011;72645;47.136;15.420;2023-12-29T03:20:54;4.10;;;3.20;;
82869;SDS011;72645;47.136;15.420;2023-12-29T03:23:25;5.70;;;3.30;;
82869;SDS011;72645;47.136;15.420;2023-12-29T03:25:56;3.90;;;2.10;;
82869;SDS011;72645;47.136;15.420;2023-12-29T03:28:27;4.60;;;2.80;;
82869;SDS011;72645;47.136;15.420;2023-12-29T03:30:58;6.40;;;2.40;;
82869;SDS011;72645;47.136;15.420;2023-12-29T03:33:29;4.00;;;2.50;;
82869;SDS011;72645;47.136;15.420;2023-12-29T03:36:01;5.20;;;3.00;;
82869;SDS011;72645;47.136;15.420;2023-12-29T03:38:32;6.00;;;3.10;;
82869;SDS011;72645;47.136;15.420;2023-12-29T03:41:04;4.10;;;2.40;;
82869;SDS011;72645;47.136;15.420;2023-12-29T03:43:35;3.60;;;2.40;;
82869;SDS011;72645;47.136;15.420;2023-12-29T03:46:16;6.00;;;3.50;;
82869;SDS011;72645;47.136;15.420;2023-12-29T03:48:47;4.80;;;2.80;;
82869;SDS011;72645;47.136;15.420;2023-12-29T03:51:18;12.60;;;2.70;;
82869;SDS011;72645;47.136;15.420;2023-12-29T03:53:49;4.60;;;2.20;;
82869;SDS011;72645;47.136;15.420;2023-12-29T03:56:20;3.50;;;2.10;;
82869;SDS011;72645;47.136;15.420;2023-12-29T03:58:51;4.70;;;2.40;;
82869;SDS011;72645;47.136;15.420;2023-12-29T04:01:22;5.60;;;3.60;;
82869;SDS011;72645;47.136;15.420;2023-12-29T04:03:56;3.90;;;2.20;;
82869;SDS011;72645;47.136;15.420;2023-12-29T04:06:27;3.70;;;2.20;;
82869;SDS011;72645;47.136;15.420;2023-12-29T04:08:59;5.00;;;2.10;;
82869;SDS011;72645;47.136;15.420;2023-12-29T04:11:30;3.60;;;1.80;;
82869;SDS011;72645;47.136;15.420;2023-12-29T04:14:01;4.60;;;2.50;;
82869;SDS011;72645;47.136;15.420;2023-12-29T04:16:32;3.70;;;2.00;;
82869;SDS011;72645;47.136;15.420;2023-12-29T04:19:03;4.00;;;2.10;;
82869;SDS011;72645;47.136;15.420;2023-12-29T04:21:34;4.40;;;2.10;;
82869;SDS011;72645;47.136;15.420;2023-12-29T04:24:05;3.20;;;1.80;;
82869;SDS011;72645;47.136;15.420;2023-12-29T04:26:36;4.00;;;1.90;;
82869;SDS011;72645;47.136;15.420;2023-12-29T04:29:08;3.20;;;1.90;;
82869;SDS011;72645;47.136;15.420;2023-12-29T04:31:39;3.30;;;2.50;;
82869;SDS011;72645;47.136;15.420;2023-12-29T04:34:10;5.40;;;2.60;;
82869;SDS011;72645;47.136;15.420;2023-12-29T04:36:41;3.50;;;3.10;;
82869;SDS011;72645;47.136;15.420;2023-12-29T04:39:12;3.90;;;2.50;;
82869;SDS011;72645;47.136;15.420;2023-12-29T04:41:43;4.00;;;2.70;;
82869;SDS011;72645;47.136;15.420;2023-12-29T04:44:14;3.90;;;2.50;;
82869;SDS011;72645;47.136;15.420;2023-12-29T04:46:45;7.20;;;3.40;;
82869;SDS011;72645;47.136;15.420;2023-12-29T04:49:16;2.80;;;1.70;;
82869;SDS011;72645;47.136;15.420;2023-12-29T04:51:47;4.70;;;2.40;;
82869;SDS011;72645;47.136;15.420;2023-12-29T04:54:18;4.40;;;2.00;;
82869;SDS011;72645;47.136;15.420;2023-12-29T04:56:49;5.20;;;2.40;;
82869;SDS011;72645;47.136;15.420;2023-12-29T04:59:20;4.10;;;2.00;;
82869;SDS011;72645;47.136;15.420;2023-12-29T05:01:51;7.00;;;2.30;;
82869;SDS011;72645;47.136;15.420;2023-12-29T05:04:22;3.60;;;1.70;;
82869;SDS011;72645;47.136;15.420;2023-12-29T05:06:54;4.80;;;2.10;;
82869;SDS011;72645;47.136;15.420;2023-12-29T05:09:24;3.90;;;2.40;;
82869;SDS011;72645;47.136;15.420;2023-12-29T05:11:55;7.00;;;2.10;;
82869;SDS011;72645;47.136;15.420;2023-12-29T05:14:26;4.30;;;1.90;;
82869;SDS011;72645;47.136;15.420;2023-12-29T05:16:57;8.80;;;2.80;;
82869;SDS011;72645;47.136;15.420;2023-12-29T05:19:28;7.10;;;2.90;;
82869;SDS011;72645;47.136;15.420;2023-12-29T05:22:00;3.80;;;1.90;;
82869;SDS011;72645;47.136;15.420;2023-12-29T05:24:31;3.00;;;2.50;;
82869;SDS011;72645;47.136;15.420;2023-12-29T05:27:02;4.00;;;1.70;;
82869;SDS011;72645;47.136;15.420;2023-12-29T05:29:33;6.40;;;2.40;;
82869;SDS011;72645;47.136;15.420;2023-12-29T05:32:05;4.20;;;2.40;;
82869;SDS011;72645;47.136;15.420;2023-12-29T05:34:36;4.00;;;1.90;;
82869;SDS011;72645;47.136;15.420;2023-12-29T05:37:07;2.70;;;1.60;;
82869;SDS011;72645;47.136;15.420;2023-12-29T05:39:38;3.70;;;1.90;;
82869;SDS011;72645;47.136;15.420;2023-12-29T05:42:12;3.20;;;1.90;;
82869;SDS011;72645;47.136;15.420;2023-12-29T05:44:43;3.60;;;2.40;;
82869;SDS011;72645;47.136;15.420;2023-12-29T05:47:15;8.80;;;2.20;;
82869;SDS011;72645;47.136;15.420;2023-12-29T05:49:46;4.40;;;1.60;;
82869;SDS011;72645;47.136;15.420;2023-12-29T05:52:17;4.80;;;2.60;;
82869;SDS011;72645;47.136;15.420;2023-12-29T05:54:48;4.10;;;2.70;;
82869;SDS011;72645;47.136;15.420;2023-12-29T05:57:19;3.50;;;2.30;;
82869;SDS011;72645;47.136;15.420;2023-12-29T05:59:50;4.50;;;2.40;;
82869;SDS011;72645;47.136;15.420;2023-12-29T06:02:21;4.30;;;2.30;;
82869;SDS011;72645;47.136;15.420;2023-12-29T06:04:52;3.30;;;2.40;;
82869;SDS011;72645;47.136;15.420;2023-12-29T06:07:23;3.30;;;2.00;;
82869;SDS011;72645;47.136;15.420;2023-12-29T06:09:54;4.50;;;2.80;;
82869;SDS011;72645;47.136;15.420;2023-12-29T06:12:26;6.70;;;2.40;;
82869;SDS011;72645;47.136;15.420;2023-12-29T06:14:57;4.60;;;2.60;;
82869;SDS011;72645;47.136;15.420;2023-12-29T06:17:28;4.40;;;1.70;;
82869;SDS011;72645;47.136;15.420;2023-12-29T06:20:00;4.50;;;1.80;;
82869;SDS011;72645;47.136;15.420;2023-12-29T06:22:33;2.60;;;1.80;;
82869;SDS011;72645;47.136;15.420;2023-12-29T06:25:10;6.00;;;5.40;;
82869;SDS011;72645;47.136;15.420;2023-12-29T06:27:41;5.50;;;2.10;;
82869;SDS011;72645;47.136;15.420;2023-12-29T06:30:13;3.20;;;2.10;;
82869;SDS011;72645;47.136;15.420;2023-12-29T06:32:44;4.00;;;1.70;;
82869;SDS011;72645;47.136;15.420;2023-12-29T06:35:15;4.20;;;2.10;;
82869;SDS011;72645;47.136;15.420;2023-12-29T06:37:46;4.80;;;1.90;;
82869;SDS011;72645;47.136;15.420;2023-12-29T06:40:17;3.90;;;2.30;;
82869;SDS011;72645;47.136;15.420;2023-12-29T06:42:49;3.60;;;2.00;;
82869;SDS011;72645;47.136;15.420;2023-12-29T06:45:20;3.40;;;2.30;;
82869;SDS011;72645;47.136;15.420;2023-12-29T06:47:51;6.40;;;2.60;;
82869;SDS011;72645;47.136;15.420;2023-12-29T06:50:22;7.50;;;2.60;;
82869;SDS011;72645;47.136;15.420;2023-12-29T06:52:53;3.70;;;2.20;;
82869;SDS011;72645;47.136;15.420;2023-12-29T06:55:25;6.90;;;3.00;;
82869;SDS011;72645;47.136;15.420;2023-12-29T06:57:56;6.40;;;3.20;;
82869;SDS011;72645;47.136;15.420;2023-12-29T07:00:27;8.40;;;3.00;;
82869;SDS011;72645;47.136;15.420;2023-12-29T07:02:59;6.70;;;3.70;;
82869;SDS011;72645;47.136;15.420;2023-12-29T07:05:32;10.20;;;4.10;;
82869;SDS011;72645;47.136;15.420;2023-12-29T07:08:03;5.80;;;2.80;;
82869;SDS011;72645;47.136;15.420;2023-12-29T07:10:34;7.30;;;3.50;;
82869;SDS011;72645;47.136;15.420;2023-12-29T07:13:05;17.40;;;9.00;;
82869;SDS011;72645;47.136;15.420;2023-12-29T07:15:37;17.80;;;9.40;;
82869;SDS011;72645;47.136;15.420;2023-12-29T07:18:08;12.50;;;4.90;;
82869;SDS011;72645;47.136;15.420;2023-12-29T07:20:39;7.80;;;4.40;;
82869;SDS011;72645;47.136;15.420;2023-12-29T07:23:10;7.70;;;4.10;;
82869;SDS011;72645;47.136;15.420;2023-12-29T07:25:41;8.30;;;3.40;;
82869;SDS011;72645;47.136;15.420;2023-12-29T07:28:12;5.90;;;2.90;;
82869;SDS011;72645;47.136;15.420;2023-12-29T07:30:43;4.90;;;2.80;;
82869;SDS011;72645;47.136;15.420;2023-12-29T07:33:15;5.40;;;2.70;;
82869;SDS011;72645;47.136;15.420;2023-12-29T07:35:46;4.00;;;2.80;;
82869;SDS011;72645;47.136;15.420;2023-12-29T07:38:17;6.70;;;2.90;;
82869;SDS011;72645;47.136;15.420;2023-12-29T07:40:48;3.90;;;2.70;;
82869;SDS011;72645;47.136;15.420;2023-12-29T07:43:19;5.20;;;3.30;;
82869;SDS011;72645;47.136;15.420;2023-12-29T07:45:51;5.80;;;3.60;;
82869;SDS011;72645;47.136;15.420;2023-12-29T07:48:22;6.90;;;3.70;;
82869;SDS011;72645;47.136;15.420;2023-12-29T07:50:53;5.00;;;2.60;;
82869;SDS011;72645;47.136;15.420;2023-12-29T07:53:26;3.70;;;1.90;;
82869;SDS011;72645;47.136;15.420;2023-12-29T07:55:57;3.90;;;2.60;;
82869;SDS011;72645;47.136;15.420;2023-12-29T07:58:28;4.60;;;1.90;;
82869;SDS011;72645;47.136;15.420;2023-12-29T08:00:59;3.80;;;2.40;;
82869;SDS011;72645;47.136;15.420;2023-12-29T08:03:30;4.30;;;3.40;;
82869;SDS011;72645;47.136;15.420;2023-12-29T08:06:01;8.10;;;2.20;;
82869;SDS011;72645;47.136;15.420;2023-12-29T08:08:34;3.80;;;2.00;;
82869;SDS011;72645;47.136;15.420;2023-12-29T08:11:05;3.30;;;2.60;;
82869;SDS011;72645;47.136;15.420;2023-12-29T08:13:42;6.20;;;3.70;;
82869;SDS011;72645;47.136;15.420;2023-12-29T08:16:16;10.40;;;5.80;;
82869;SDS011;72645;47.136;15.420;2023-12-29T08:18:48;5.10;;;2.90;;
82869;SDS011;72645;47.136;15.420;2023-12-29T08:21:20;4.60;;;2.10;;
82869;SDS011;72645;47.136;15.420;2023-12-29T08:23:51;4.60;;;2.20;;
82869;SDS011;72645;47.136;15.420;2023-12-29T08:26:22;4.80;;;2.70;;
82869;SDS011;72645;47.136;15.420;2023-12-29T08:28:53;6.70;;;3.30;;
82869;SDS011;72645;47.136;15.420;2023-12-29T08:31:24;4.40;;;2.70;;
82869;SDS011;72645;47.136;15.420;2023-12-29T08:33:58;3.10;;;2.10;;
82869;SDS011;72645;47.136;15.420;2023-12-29T08:36:29;5.30;;;2.50;;
82869;SDS011;72645;47.136;15.420;2023-12-29T08:39:00;4.00;;;2.30;;
82869;SDS011;72645;47.136;15.420;2023-12-29T08:41:32;6.60;;;3.20;;
82869;SDS011;72645;47.136;15.420;2023-12-29T08:44:03;6.60;;;3.00;;
82869;SDS011;72645;47.136;15.420;2023-12-29T08:46:34;4.30;;;2.50;;
82869;SDS011;72645;47.136;15.420;2023-12-29T08:49:05;6.80;;;3.20;;
82869;SDS011;72645;47.136;15.420;2023-12-29T08:51:36;5.80;;;2.40;;
82869;SDS011;72645;47.136;15.420;2023-12-29T08:54:07;3.80;;;2.40;;
82869;SDS011;72645;47.136;15.420;2023-12-29T08:56:38;6.20;;;2.70;;
82869;SDS011;72645;47.136;15.420;2023-12-29T08:59:09;4.60;;;2.30;;
82869;SDS011;72645;47.136;15.420;2023-12-29T09:01:40;5.50;;;3.20;;
82869;SDS011;72645;47.136;15.420;2023-12-29T09:04:11;3.80;;;2.30;;
82869;SDS011;72645;47.136;15.420;2023-12-29T09:06:43;9.10;;;2.50;;
82869;SDS011;72645;47.136;15.420;2023-12-29T09:09:14;8.50;;;2.40;;
82869;SDS011;72645;47.136;15.420;2023-12-29T09:11:45;4.00;;;2.20;;
82869;SDS011;72645;47.136;15.420;2023-12-29T09:14:16;4.80;;;2.50;;
82869;SDS011;72645;47.136;15.420;2023-12-29T09:16:47;5.20;;;1.90;;
82869;SDS011;72645;47.136;15.420;2023-12-29T09:19:18;5.20;;;2.70;;
82869;SDS011;72645;47.136;15.420;2023-12-29T09:22:03;5.60;;;2.50;;
82869;SDS011;72645;47.136;15.420;2023-12-29T09:24:34;7.70;;;2.90;;
82869;SDS011;72645;47.136;15.420;2023-12-29T09:27:05;5.10;;;2.50;;
82869;SDS011;72645;47.136;15.420;2023-12-29T09:29:36;4.10;;;2.20;;
82869;SDS011;72645;47.136;15.420;2023-12-29T09:32:07;5.00;;;2.60;;
82869;SDS011;72645;47.136;15.420;2023-12-29T09:34:38;4.00;;;2.30;;
82869;SDS011;72645;47.136;15.420;2023-12-29T09:37:10;5.10;;;2.20;;
82869;SDS011;72645;47.136;15.420;2023-12-29T09:39:43;5.10;;;1.90;;
82869;SDS011;72645;47.136;15.420;2023-12-29T09:42:16;6.00;;;2.70;;
82869;SDS011;72645;47.136;15.420;2023-12-29T09:44:51;4.00;;;2.00;;
82869;SDS011;72645;47.136;15.420;2023-12-29T09:47:23;4.90;;;1.90;;
82869;SDS011;72645;47.136;15.420;2023-12-29T09:49:54;3.40;;;2.00;;
82869;SDS011;72645;47.136;15.420;2023-12-29T09:52:26;3.90;;;2.20;;
82869;SDS011;72645;47.136;15.420;2023-12-29T09:54:57;11.60;;;2.30;;
82869;SDS011;72645;47.136;15.420;2023-12-29T09:57:28;6.10;;;2.50;;
82869;SDS011;72645;47.136;15.420;2023-12-29T09:59:59;5.70;;;2.40;;
82869;SDS011;72645;47.136;15.420;2023-12-29T10:02:31;3.70;;;2.10;;
82869;SDS011;72645;47.136;15.420;2023-12-29T10:05:03;6.30;;;1.90;;
82869;SDS011;72645;47.136;15.420;2023-12-29T10:07:37;4.00;;;1.90;;
82869;SDS011;72645;47.136;15.420;2023-12-29T10:10:12;4.80;;;2.30;;
82869;SDS011;72645;47.136;15.420;2023-12-29T10:12:47;5.90;;;2.50;;
82869;SDS011;72645;47.136;15.420;2023-12-29T10:15:20;5.20;;;2.50;;
82869;SDS011;72645;47.136;15.420;2023-12-29T10:17:59;3.40;;;2.10;;
82869;SDS011;72645;47.136;15.420;2023-12-29T10:20:40;5.70;;;2.40;;
82869;SDS011;72645;47.136;15.420;2023-12-29T10:23:16;4.90;;;2.50;;
82869;SDS011;72645;47.136;15.420;2023-12-29T10:25:49;5.30;;;2.60;;
82869;SDS011;72645;47.136;15.420;2023-12-29T10:28:21;2.90;;;2.10;;
82869;SDS011;72645;47.136;15.420;2023-12-29T10:30:52;5.70;;;2.10;;
82869;SDS011;72645;47.136;15.420;2023-12-29T10:33:23;4.70;;;2.40;;
82869;SDS011;72645;47.136;15.420;2023-12-29T10:35:57;3.30;;;2.20;;
82869;SDS011;72645;47.136;15.420;2023-12-29T10:38:31;3.10;;;1.90;;
82869;SDS011;72645;47.136;15.420;2023-12-29T10:41:12;3.70;;;2.60;;
82869;SDS011;72645;47.136;15.420;2023-12-29T10:43:44;4.80;;;2.10;;
82869;SDS011;72645;47.136;15.420;2023-12-29T10:46:20;5.60;;;2.40;;
82869;SDS011;72645;47.136;15.420;2023-12-29T10:48:54;5.30;;;2.30;;
82869;SDS011;72645;47.136;15.420;2023-12-29T10:51:38;4.10;;;2.40;;
82869;SDS011;72645;47.136;15.420;2023-12-29T10:54:11;7.00;;;2.00;;
82869;SDS011;72645;47.136;15.420;2023-12-29T10:57:01;5.20;;;2.00;;
82869;SDS011;72645;47.136;15.420;2023-12-29T10:59:32;4.90;;;1.80;;
82869;SDS011;72645;47.136;15.420;2023-12-29T11:02:04;5.00;;;2.20;;
82869;SDS011;72645;47.136;15.420;2023-12-29T11:04:36;13.10;;;4.90;;
82869;SDS011;72645;47.136;15.420;2023-12-29T11:07:09;9.20;;;4.00;;
82869;SDS011;72645;47.136;15.420;2023-12-29T11:09:43;9.10;;;2.90;;
82869;SDS011;72645;47.136;15.420;2023-12-29T11:12:15;9.30;;;2.20;;
82869;SDS011;72645;47.136;15.420;2023-12-29T11:14:46;5.10;;;2.00;;
82869;SDS011;72645;47.136;15.420;2023-12-29T11:17:17;6.00;;;2.30;;
82869;SDS011;72645;47.136;15.420;2023-12-29T11:19:50;2.40;;;1.70;;
82869;SDS011;72645;47.136;15.420;2023-12-29T11:22:22;4.20;;;2.10;;
82869;SDS011;72645;47.136;15.420;2023-12-29T11:24:53;8.80;;;2.10;;
82869;SDS011;72645;47.136;15.420;2023-12-29T11:27:27;3.30;;;1.70;;
82869;SDS011;72645;47.136;15.420;2023-12-29T11:29:59;6.50;;;2.10;;
82869;SDS011;72645;47.136;15.420;2023-12-29T11:32:35;7.70;;;1.90;;
82869;SDS011;72645;47.136;15.420;2023-12-29T11:35:13;8.80;;;2.30;;
82869;SDS011;72645;47.136;15.420;2023-12-29T11:38:06;8.10;;;3.70;;
82869;SDS011;72645;47.136;15.420;2023-12-29T11:40:50;10.00;;;3.20;;
82869;SDS011;72645;47.136;15.420;2023-12-29T11:43:27;10.70;;;3.90;;
82869;SDS011;72645;47.136;15.420;2023-12-29T11:45:58;4.90;;;2.90;;
82869;SDS011;72645;47.136;15.420;2023-12-29T11:51:30;5.70;;;2.10;;
82869;SDS011;72645;47.136;15.420;2023-12-29T11:54:03;4.50;;;2.10;;
82869;SDS011;72645;47.136;15.420;2023-12-29T11:56:36;3.60;;;2.20;;
82869;SDS011;72645;47.136;15.420;2023-12-29T11:59:15;4.50;;;1.60;;
82869;SDS011;72645;47.136;15.420;2023-12-29T12:01:48;6.50;;;2.00;;
82869;SDS011;72645;47.136;15.420;2023-12-29T12:04:39;6.60;;;1.90;;
82869;SDS011;72645;47.136;15.420;2023-12-29T12:07:17;4.30;;;1.80;;
82869;SDS011;72645;47.136;15.420;2023-12-29T12:10:32;6.30;;;2.80;;
82869;SDS011;72645;47.136;15.420;2023-12-29T12:13:06;4.10;;;1.70;;
82869;SDS011;72645;47.136;15.420;2023-12-29T12:15:38;5.90;;;1.80;;
82869;SDS011;72645;47.136;15.420;2023-12-29T12:18:10;3.80;;;1.60;;
82869;SDS011;72645;47.136;15.420;2023-12-29T12:20:42;11.60;;;2.00;;
82869;SDS011;72645;47.136;15.420;2023-12-29T12:23:19;4.20;;;1.80;;
82869;SDS011;72645;47.136;15.420;2023-12-29T12:25:55;3.20;;;1.30;;
82869;SDS011;72645;47.136;15.420;2023-12-29T12:28:31;3.30;;;1.70;;
82869;SDS011;72645;47.136;15.420;2023-12-29T12:31:08;3.90;;;1.60;;
82869;SDS011;72645;47.136;15.420;2023-12-29T12:33:41;4.90;;;2.10;;
82869;SDS011;72645;47.136;15.420;2023-12-29T12:36:24;9.20;;;2.00;;
82869;SDS011;72645;47.136;15.420;2023-12-29T12:38:55;4.30;;;1.80;;
82869;SDS011;72645;47.136;15.420;2023-12-29T12:41:28;2.80;;;1.50;;
82869;SDS011;72645;47.136;15.420;2023-12-29T12:44:02;3.80;;;1.60;;
82869;SDS011;72645;47.136;15.420;2023-12-29T12:46:41;4.40;;;1.70;;
82869;SDS011;72645;47.136;15.420;2023-12-29T12:49:18;3.50;;;1.60;;
82869;SDS011;72645;47.136;15.420;2023-12-29T12:51:50;7.20;;;2.00;;
82869;SDS011;72645;47.136;15.420;2023-12-29T12:54:22;5.50;;;2.30;;
82869;SDS011;72645;47.136;15.420;2023-12-29T12:56:54;7.80;;;1.70;;
82869;SDS011;72645;47.136;15.420;2023-12-29T12:59:25;4.90;;;1.60;;
82869;SDS011;72645;47.136;15.420;2023-12-29T13:01:58;4.10;;;1.90;;
82869;SDS011;72645;47.136;15.420;2023-12-29T13:04:31;4.50;;;2.00;;
82869;SDS011;72645;47.136;15.420;2023-12-29T13:07:03;5.40;;;1.90;;
82869;SDS011;72645;47.136;15.420;2023-12-29T13:09:37;5.50;;;2.10;;
82869;SDS011;72645;47.136;15.420;2023-12-29T13:12:08;12.30;;;2.20;;
82869;SDS011;72645;47.136;15.420;2023-12-29T13:14:41;6.40;;;2.20;;
82869;SDS011;72645;47.136;15.420;2023-12-29T13:17:14;9.90;;;2.20;;
82869;SDS011;72645;47.136;15.420;2023-12-29T13:19:45;3.80;;;1.60;;
82869;SDS011;72645;47.136;15.420;2023-12-29T13:22:24;4.50;;;1.70;;
82869;SDS011;72645;47.136;15.420;2023-12-29T13:24:56;6.90;;;1.70;;
82869;SDS011;72645;47.136;15.420;2023-12-29T13:27:28;4.20;;;1.90;;
82869;SDS011;72645;47.136;15.420;2023-12-29T13:30:00;4.60;;;2.00;;
82869;SDS011;72645;47.136;15.420;2023-12-29T13:32:31;8.00;;;1.90;;
82869;SDS011;72645;47.136;15.420;2023-12-29T13:35:08;4.10;;;1.70;;
82869;SDS011;72645;47.136;15.420;2023-12-29T13:37:50;5.20;;;3.20;;
82869;SDS011;72645;47.136;15.420;2023-12-29T13:40:34;13.10;;;4.90;;
82869;SDS011;72645;47.136;15.420;2023-12-29T13:43:09;19.30;;;5.30;;
82869;SDS011;72645;47.136;15.420;2023-12-29T13:45:43;5.80;;;2.60;;
82869;SDS011;72645;47.136;15.420;2023-12-29T13:48:15;7.40;;;2.60;;
82869;SDS011;72645;47.136;15.420;2023-12-29T13:50:47;9.00;;;2.10;;
82869;SDS011;72645;47.136;15.420;2023-12-29T13:53:19;4.00;;;2.60;;
82869;SDS011;72645;47.136;15.420;2023-12-29T13:55:51;5.50;;;1.90;;
82869;SDS011;72645;47.136;15.420;2023-12-29T13:58:23;7.50;;;2.30;;
82869;SDS011;72645;47.136;15.420;2023-12-29T14:00:56;4.20;;;2.00;;
82869;SDS011;72645;47.136;15.420;2023-12-29T14:03:30;6.00;;;2.20;;
82869;SDS011;72645;47.136;15.420;2023-12-29T14:06:07;6.20;;;2.50;;
82869;SDS011;72645;47.136;15.420;2023-12-29T14:08:44;8.20;;;3.00;;
82869;SDS011;72645;47.136;15.420;2023-12-29T14:11:16;13.20;;;3.90;;
82869;SDS011;72645;47.136;15.420;2023-12-29T14:13:47;8.60;;;4.20;;
82869;SDS011;72645;47.136;15.420;2023-12-29T14:16:18;7.20;;;3.90;;
82869;SDS011;72645;47.136;15.420;2023-12-29T14:18:53;9.10;;;3.80;;
82869;SDS011;72645;47.136;15.420;2023-12-29T14:21:28;6.20;;;2.70;;
82869;SDS011;72645;47.136;15.420;2023-12-29T14:24:00;6.60;;;2.90;;
82869;SDS011;72645;47.136;15.420;2023-12-29T14:26:35;6.50;;;2.50;;
82869;SDS011;72645;47.136;15.420;2023-12-29T14:29:09;11.60;;;3.90;;
82869;SDS011;72645;47.136;15.420;2023-12-29T14:31:42;9.10;;;2.40;;
82869;SDS011;72645;47.136;15.420;2023-12-29T14:34:13;7.30;;;2.80;;
82869;SDS011;72645;47.136;15.420;2023-12-29T14:36:45;8.60;;;3.00;;
82869;SDS011;72645;47.136;15.420;2023-12-29T14:39:16;8.40;;;3.20;;
82869;SDS011;72645;47.136;15.420;2023-12-29T14:41:47;6.50;;;2.70;;
82869;SDS011;72645;47.136;15.420;2023-12-29T14:44:20;15.60;;;6.70;;
82869;SDS011;72645;47.136;15.420;2023-12-29T14:46:52;30.60;;;15.30;;
82869;SDS011;72645;47.136;15.420;2023-12-29T14:49:23;22.70;;;11.10;;
82869;SDS011;72645;47.136;15.420;2023-12-29T14:51:55;15.60;;;7.70;;
82869;SDS011;72645;47.136;15.420;2023-12-29T14:54:26;9.30;;;4.80;;
82869;SDS011;72645;47.136;15.420;2023-12-29T14:56:56;9.70;;;6.40;;
82869;SDS011;72645;47.136;15.420;2023-12-29T14:59:38;11.50;;;6.10;;
82869;SDS011;72645;47.136;15.420;2023-12-29T15:02:09;9.50;;;5.20;;
82869;SDS011;72645;47.136;15.420;2023-12-29T15:04:40;10.60;;;3.50;;
82869;SDS011;72645;47.136;15.420;2023-12-29T15:07:11;8.80;;;3.90;;
82869;SDS011;72645;47.136;15.420;2023-12-29T15:09:42;7.00;;;3.50;;
82869;SDS011;72645;47.136;15.420;2023-12-29T15:12:13;6.70;;;2.70;;